createdAt,value
2022-10-06T00:00:13.778Z,0.43
2022-10-06T00:03:00.050Z,0.73
2022-10-06T00:05:45.570Z,0.68
2022-10-06T00:08:33.530Z,0.70
2022-10-06T00:11:22.274Z,0.73
2022-10-06T00:14:08.342Z,0.70
2022-10-06T00:16:53.818Z,0.90
2022-10-06T00:19:41.092Z,0.68
2022-10-06T00:22:26.496Z,0.28
2022-10-06T00:25:15.645Z,0.63
2022-10-06T00:28:02.950Z,0.20
2022-10-06T00:30:49.074Z,0.20
2022-10-06T00:33:35.722Z,0.35
2022-10-06T00:36:21.466Z,0.25
2022-10-06T00:39:07.560Z,0.30
2022-10-06T00:41:54.236Z,0.20
2022-10-06T00:44:41.513Z,0.10
2022-10-06T00:47:31.293Z,0.30
2022-10-06T00:50:18.118Z,0.13
2022-10-06T00:53:05.050Z,0.30
2022-10-06T00:55:50.771Z,0.10
2022-10-06T00:58:37.921Z,0.10
2022-10-06T01:01:23.986Z,0.10
2022-10-06T01:04:15.750Z,0.10
2022-10-06T01:07:01.989Z,0.10
2022-10-06T01:09:48.573Z,0.10
2022-10-06T01:12:34.623Z,0.10
2022-10-06T01:15:22.106Z,0.13
2022-10-06T01:18:14.922Z,0.28
2022-10-06T01:21:21.036Z,0.10
2022-10-06T01:24:06.660Z,0.00
2022-10-06T01:26:53.508Z,0.50
2022-10-06T01:29:39.494Z,0.10
2022-10-06T01:32:31.583Z,0.10
2022-10-06T01:35:18.751Z,0.10
2022-10-06T01:38:04.660Z,0.30
2022-10-06T01:40:53.600Z,0.10
2022-10-06T01:43:40.022Z,0.17
2022-10-06T01:46:26.405Z,0.10
2022-10-06T01:49:13.304Z,0.40
2022-10-06T01:51:59.029Z,0.30
2022-10-06T01:54:44.827Z,0.35
2022-10-06T01:57:32.031Z,0.10
2022-10-06T02:00:19.412Z,0.20
2022-10-06T02:03:07.854Z,0.20
2022-10-06T02:05:56.796Z,0.32
2022-10-06T02:08:42.581Z,0.10
2022-10-06T02:11:29.591Z,0.20
2022-10-06T02:14:15.982Z,0.20
2022-10-06T02:17:02.434Z,0.28
2022-10-06T02:19:47.756Z,0.30
2022-10-06T02:22:38.605Z,0.20
2022-10-06T02:25:23.926Z,0.20
2022-10-06T02:28:11.103Z,0.13
2022-10-06T02:31:05.395Z,0.57
2022-10-06T02:33:51.584Z,0.30
2022-10-06T02:36:37.698Z,0.20
2022-10-06T02:39:23.339Z,0.20
2022-10-06T02:42:09.169Z,0.30
2022-10-06T02:44:54.978Z,0.47
2022-10-06T02:47:41.414Z,0.38
2022-10-06T02:50:26.906Z,0.25
2022-10-06T02:53:12.294Z,0.30
2022-10-06T02:56:10.993Z,0.40
2022-10-06T02:58:56.609Z,0.45
2022-10-06T03:01:42.193Z,0.32
2022-10-06T03:04:28.077Z,0.38
2022-10-06T03:07:16.123Z,0.40
2022-10-06T03:10:01.442Z,0.55
2022-10-06T03:12:48.555Z,0.43
2022-10-06T03:15:36.434Z,0.53
2022-10-06T03:18:22.441Z,0.63
2022-10-06T03:21:12.766Z,0.52
2022-10-06T03:23:59.273Z,0.30
2022-10-06T03:26:48.122Z,0.50
2022-10-06T03:29:34.121Z,0.52
2022-10-06T03:32:20.122Z,0.40
2022-10-06T03:35:06.017Z,0.57
2022-10-06T03:37:51.741Z,0.55
2022-10-06T03:40:37.742Z,0.40
2022-10-06T03:43:23.595Z,0.25
2022-10-06T03:46:12.703Z,0.43
2022-10-06T03:49:00.799Z,0.70
2022-10-06T03:51:46.369Z,0.52
2022-10-06T03:54:31.999Z,0.50
2022-10-06T03:57:17.595Z,0.70
2022-10-06T04:00:04.114Z,0.50
2022-10-06T04:02:51.281Z,0.37
2022-10-06T04:05:37.477Z,0.30
2022-10-06T04:08:24.567Z,0.38
2022-10-06T04:11:14.355Z,0.20
2022-10-06T04:14:02.723Z,0.50
2022-10-06T04:16:50.346Z,0.50
2022-10-06T04:19:36.485Z,0.50
2022-10-06T04:22:22.378Z,0.65
2022-10-06T04:25:09.002Z,0.40
2022-10-06T04:27:54.667Z,0.50
2022-10-06T04:30:40.562Z,0.40
2022-10-06T04:33:26.485Z,0.77
2022-10-06T04:36:24.022Z,0.43
2022-10-06T04:39:11.617Z,0.40
2022-10-06T04:41:57.598Z,0.30
2022-10-06T04:44:43.495Z,0.52
2022-10-06T04:47:29.076Z,0.50
2022-10-06T04:50:14.662Z,0.40
2022-10-06T04:53:00.703Z,0.68
2022-10-06T04:55:46.508Z,0.75
2022-10-06T04:58:34.251Z,0.45
2022-10-06T05:01:25.697Z,0.60
2022-10-06T05:04:11.084Z,0.40
2022-10-06T05:06:56.568Z,0.30
2022-10-06T05:09:42.441Z,0.50
2022-10-06T05:12:31.757Z,0.50
2022-10-06T05:15:17.981Z,0.70
2022-10-06T05:18:03.638Z,0.50
2022-10-06T05:21:06.846Z,0.65
2022-10-06T05:23:52.361Z,0.70
2022-10-06T05:26:38.032Z,0.55
2022-10-06T05:29:23.382Z,0.70
2022-10-06T05:32:10.200Z,0.95
2022-10-06T05:34:56.199Z,0.60
2022-10-06T05:37:49.418Z,0.50
2022-10-06T05:40:35.869Z,0.35
2022-10-06T05:43:21.532Z,0.75
2022-10-06T05:46:21.659Z,0.65
2022-10-06T05:49:10.161Z,0.52
2022-10-06T05:51:56.531Z,0.40
2022-10-06T05:54:42.115Z,0.90
2022-10-06T05:57:28.016Z,1.08
2022-10-06T06:00:14.107Z,1.13
2022-10-06T06:03:00.261Z,1.00
2022-10-06T06:05:45.817Z,1.20
2022-10-06T06:08:31.741Z,0.82
2022-10-06T06:11:20.100Z,0.70
2022-10-06T06:14:09.824Z,0.88
2022-10-06T06:16:55.768Z,0.70
2022-10-06T06:19:41.552Z,0.80
2022-10-06T06:22:26.994Z,1.00
2022-10-06T06:25:12.969Z,1.35
2022-10-06T06:27:58.588Z,0.95
2022-10-06T06:30:44.369Z,0.80
2022-10-06T06:33:32.134Z,0.63
2022-10-06T06:36:22.643Z,0.85
2022-10-06T06:39:10.613Z,0.70
2022-10-06T06:41:56.100Z,0.73
2022-10-06T06:44:42.063Z,0.80
2022-10-06T06:47:27.431Z,1.08
2022-10-06T06:50:17.204Z,0.80
2022-10-06T06:53:02.645Z,0.63
2022-10-06T06:55:52.309Z,1.00
2022-10-06T06:58:37.963Z,1.23
2022-10-06T07:01:24.043Z,0.82
2022-10-06T07:04:10.804Z,1.08
2022-10-06T07:06:59.147Z,0.60
2022-10-06T07:09:44.967Z,0.85
2022-10-06T07:12:30.789Z,0.93
2022-10-06T07:15:35.028Z,0.68
2022-10-06T07:18:38.963Z,1.17
2022-10-06T07:21:43.626Z,1.02
2022-10-06T07:24:47.574Z,0.88
2022-10-06T07:27:41.011Z,0.77
2022-10-06T07:30:29.217Z,0.82
2022-10-06T07:33:15.708Z,1.10
2022-10-06T07:36:03.161Z,1.03
2022-10-06T07:38:49.109Z,1.00
2022-10-06T07:41:35.572Z,0.70
2022-10-06T07:44:22.802Z,0.77
2022-10-06T07:47:08.734Z,0.52
2022-10-06T07:49:57.932Z,0.60
2022-10-06T07:52:43.710Z,1.23
2022-10-06T07:55:30.612Z,1.10
2022-10-06T07:58:22.392Z,1.00
2022-10-06T08:01:10.377Z,1.08
2022-10-06T08:03:57.561Z,1.00
2022-10-06T08:06:44.861Z,0.75
2022-10-06T08:09:30.903Z,1.10
2022-10-06T08:12:35.105Z,0.63
2022-10-06T08:15:21.140Z,0.70
2022-10-06T08:18:21.320Z,0.65
2022-10-06T08:21:19.339Z,0.85
2022-10-06T08:24:05.448Z,0.98
2022-10-06T08:26:53.646Z,0.97
2022-10-06T08:29:40.041Z,0.80
2022-10-06T08:32:26.334Z,0.57
2022-10-06T08:35:12.309Z,0.90
2022-10-06T08:37:59.182Z,1.30
2022-10-06T08:40:47.128Z,0.65
2022-10-06T08:43:35.229Z,1.03
2022-10-06T08:46:25.017Z,0.93
2022-10-06T08:49:19.856Z,1.20
2022-10-06T08:52:22.748Z,1.10
2022-10-06T08:55:38.634Z,1.15
2022-10-06T08:58:58.549Z,1.05
2022-10-06T09:01:50.501Z,0.95
2022-10-06T09:04:38.019Z,0.90
2022-10-06T09:07:39.021Z,1.10
2022-10-06T09:11:00.123Z,1.15
2022-10-06T09:13:59.994Z,0.90
2022-10-06T09:16:53.694Z,0.90
2022-10-06T09:19:59.622Z,0.52
2022-10-06T09:22:50.228Z,0.82
2022-10-06T09:25:38.381Z,0.68
2022-10-06T09:28:25.593Z,0.68
2022-10-06T09:31:24.348Z,0.80
2022-10-06T09:34:31.212Z,1.20
2022-10-06T09:37:18.608Z,1.00
2022-10-06T09:40:49.208Z,0.85
2022-10-06T09:43:35.105Z,0.98
2022-10-06T09:46:32.031Z,0.87
2022-10-06T09:49:20.383Z,1.10
2022-10-06T09:52:15.176Z,0.95
2022-10-06T09:55:19.826Z,1.27
2022-10-06T09:58:20.518Z,0.95
2022-10-06T10:01:08.505Z,1.07
2022-10-06T10:04:20.042Z,0.80
2022-10-06T10:07:25.344Z,1.10
2022-10-06T10:10:24.248Z,1.00
2022-10-06T10:13:25.078Z,0.80
2022-10-06T10:16:17.175Z,0.77
2022-10-06T10:19:06.031Z,0.68
2022-10-06T10:21:56.420Z,0.57
2022-10-06T10:25:04.597Z,1.10
2022-10-06T10:28:14.365Z,1.05
2022-10-06T10:31:18.611Z,0.75
2022-10-06T10:34:24.462Z,1.20
2022-10-06T10:37:35.995Z,0.90
2022-10-06T10:40:32.767Z,0.52
2022-10-06T10:43:23.175Z,0.50
2022-10-06T10:46:23.112Z,0.73
2022-10-06T10:49:33.948Z,0.50
2022-10-06T10:52:23.295Z,0.70
2022-10-06T10:55:23.758Z,0.80
2022-10-06T10:58:24.007Z,1.00
2022-10-06T11:01:17.636Z,0.90
2022-10-06T11:04:10.500Z,1.17
2022-10-06T11:07:12.033Z,1.05
2022-10-06T11:10:38.977Z,1.02
2022-10-06T11:13:48.832Z,0.80
2022-10-06T11:16:51.151Z,0.80
2022-10-06T11:19:46.029Z,1.15
2022-10-06T11:22:41.636Z,1.00
2022-10-06T11:25:40.846Z,0.80
2022-10-06T11:28:54.630Z,0.70
2022-10-06T11:32:01.959Z,0.80
2022-10-06T11:34:52.581Z,1.07
2022-10-06T11:37:47.550Z,1.15
2022-10-06T11:40:59.351Z,0.75
2022-10-06T11:43:49.659Z,1.00
2022-10-06T11:46:45.083Z,0.85
2022-10-06T11:49:32.630Z,1.20
2022-10-06T11:52:19.911Z,0.70
2022-10-06T11:55:18.888Z,0.60
2022-10-06T11:58:40.697Z,0.88
2022-10-06T12:01:32.543Z,0.80
2022-10-06T12:04:24.130Z,0.73
2022-10-06T12:07:11.674Z,0.70
2022-10-06T12:10:44.353Z,1.17
2022-10-06T12:17:05.611Z,0.97
2022-10-06T12:20:12.353Z,0.97
2022-10-06T12:23:13.998Z,1.00
2022-10-06T12:26:10.438Z,0.93
2022-10-06T12:29:20.821Z,1.00
2022-10-06T12:32:28.648Z,0.70
2022-10-06T12:35:39.839Z,0.82
2022-10-06T12:38:31.917Z,0.93
2022-10-06T12:42:16.609Z,0.63
2022-10-06T12:45:16.130Z,0.80
2022-10-06T12:48:06.261Z,0.80
2022-10-06T12:51:02.866Z,0.65
2022-10-06T12:54:05.945Z,1.00
2022-10-06T12:56:59.025Z,0.57
2022-10-06T12:59:45.776Z,0.70
2022-10-06T13:02:32.558Z,0.90
2022-10-06T13:05:18.429Z,0.70
2022-10-06T13:08:07.548Z,0.70
2022-10-06T13:11:13.467Z,0.55
2022-10-06T13:14:14.400Z,0.80
2022-10-06T13:17:03.339Z,0.52
2022-10-06T13:19:49.058Z,1.00
2022-10-06T13:22:36.776Z,0.60
2022-10-06T13:25:22.281Z,0.50
2022-10-06T13:28:26.675Z,1.02
2022-10-06T13:31:15.730Z,0.77
2022-10-06T13:34:12.344Z,0.90
2022-10-06T13:37:00.768Z,0.80
2022-10-06T13:39:46.687Z,0.70
2022-10-06T13:42:33.416Z,0.80
2022-10-06T13:45:19.117Z,0.70
2022-10-06T13:48:09.277Z,0.80
2022-10-06T13:50:56.130Z,0.63
2022-10-06T13:53:48.124Z,1.00
2022-10-06T13:56:41.436Z,0.73
2022-10-06T13:59:37.105Z,0.90
2022-10-06T14:02:25.515Z,0.88
2022-10-06T14:05:30.388Z,0.57
2022-10-06T14:08:23.691Z,0.70
2022-10-06T14:11:10.709Z,0.60
2022-10-06T14:14:03.199Z,0.77
2022-10-06T14:16:52.272Z,0.68
2022-10-06T14:19:40.729Z,0.57
2022-10-06T14:22:36.041Z,0.70
2022-10-06T14:25:23.037Z,0.60
2022-10-06T14:28:10.958Z,0.70
2022-10-06T14:30:58.709Z,1.10
2022-10-06T14:33:47.570Z,0.85
2022-10-06T14:36:36.931Z,0.50
2022-10-06T14:39:22.459Z,0.50
2022-10-06T14:42:08.984Z,0.70
2022-10-06T14:44:55.450Z,1.17
2022-10-06T14:47:42.366Z,0.80
2022-10-06T14:50:30.238Z,0.77
2022-10-06T14:53:18.183Z,0.70
2022-10-06T14:56:11.064Z,0.88
2022-10-06T14:59:00.919Z,0.82
2022-10-06T15:01:49.836Z,0.50
2022-10-06T15:04:35.285Z,0.85
2022-10-06T15:07:39.478Z,0.95
2022-10-06T15:10:25.494Z,0.93
2022-10-06T15:13:11.144Z,1.15
2022-10-06T15:15:58.512Z,0.80
2022-10-06T15:18:45.505Z,0.93
2022-10-06T15:21:32.188Z,1.05
2022-10-06T15:24:19.086Z,0.93
2022-10-06T15:27:25.067Z,1.02
2022-10-06T15:30:12.092Z,0.75
2022-10-06T15:32:57.607Z,0.80
2022-10-06T15:36:01.001Z,1.15
2022-10-06T15:38:47.284Z,0.88
2022-10-06T15:41:36.719Z,0.90
2022-10-06T15:44:24.553Z,0.82
2022-10-06T15:47:11.304Z,0.70
2022-10-06T15:49:57.663Z,1.13
2022-10-06T15:52:43.024Z,0.70
2022-10-06T15:55:28.764Z,1.20
2022-10-06T15:58:16.094Z,0.80
2022-10-06T16:01:04.013Z,1.20
2022-10-06T16:03:50.763Z,0.50
2022-10-06T16:06:55.473Z,0.45
2022-10-06T16:09:46.623Z,1.00
2022-10-06T16:12:34.263Z,0.82
2022-10-06T16:15:20.536Z,0.53
2022-10-06T16:18:07.026Z,0.70
2022-10-06T16:20:54.130Z,0.50
2022-10-06T16:23:41.201Z,0.90
2022-10-06T16:26:28.023Z,0.80
2022-10-06T16:29:17.116Z,0.90
2022-10-06T16:32:02.546Z,0.75
2022-10-06T16:34:50.539Z,0.60
2022-10-06T16:37:35.895Z,0.95
2022-10-06T16:40:23.068Z,0.40
2022-10-06T16:43:08.527Z,1.02
2022-10-06T16:46:02.099Z,0.95
2022-10-06T16:48:50.023Z,0.90
2022-10-06T16:51:38.183Z,1.27
2022-10-06T16:54:23.807Z,0.40
2022-10-06T16:57:10.224Z,1.10
2022-10-06T16:59:55.594Z,0.57
2022-10-06T17:02:41.794Z,0.52
2022-10-06T17:05:28.959Z,0.83
2022-10-06T17:08:14.249Z,0.60
2022-10-06T17:11:05.601Z,0.60
2022-10-06T17:13:59.555Z,0.90
2022-10-06T17:16:47.848Z,0.77
2022-10-06T17:19:33.498Z,1.00
2022-10-06T17:22:20.340Z,0.70
2022-10-06T17:25:07.314Z,1.03
2022-10-06T17:27:52.825Z,0.70
2022-10-06T17:30:40.147Z,0.90
2022-10-06T17:33:28.455Z,0.73
2022-10-06T17:36:18.039Z,0.88
2022-10-06T17:39:06.869Z,0.93
2022-10-06T17:41:53.596Z,0.70
2022-10-06T17:44:39.990Z,0.80
2022-10-06T17:47:26.430Z,0.52
2022-10-06T17:50:13.507Z,0.80
2022-10-06T17:53:02.011Z,0.60
2022-10-06T17:55:47.909Z,0.80
2022-10-06T17:58:36.527Z,0.70
2022-10-06T18:01:27.225Z,0.80
2022-10-06T18:04:18.977Z,0.90
2022-10-06T18:07:07.144Z,0.47
2022-10-06T18:10:13.083Z,1.15
2022-10-06T18:13:00.774Z,1.02
2022-10-06T18:15:48.689Z,0.60
2022-10-06T18:18:34.161Z,0.80
2022-10-06T18:21:23.516Z,1.00
2022-10-06T18:24:24.449Z,1.20
2022-10-06T18:27:11.222Z,1.23
2022-10-06T18:30:01.127Z,1.00
2022-10-06T18:36:15.039Z,0.90
2022-10-06T18:39:01.962Z,0.93
2022-10-06T18:41:50.887Z,1.27
2022-10-06T18:44:56.538Z,0.63
2022-10-06T18:48:01.158Z,0.70
2022-10-06T18:50:59.971Z,0.60
2022-10-06T18:53:46.345Z,1.00
2022-10-06T18:56:34.455Z,0.70
2022-10-06T18:59:32.218Z,0.88
2022-10-06T19:02:19.291Z,0.90
2022-10-06T19:05:06.122Z,1.20
2022-10-06T19:07:54.413Z,1.20
2022-10-06T19:11:00.816Z,1.17
2022-10-06T19:13:53.795Z,0.70
2022-10-06T19:16:42.761Z,0.80
2022-10-06T19:19:30.604Z,0.90
2022-10-06T19:22:18.050Z,1.48
2022-10-06T19:25:03.983Z,1.33
2022-10-06T19:27:51.367Z,1.00
2022-10-06T19:30:36.750Z,1.10
2022-10-06T19:33:24.219Z,1.30
2022-10-06T19:36:09.804Z,1.10
2022-10-06T19:38:57.419Z,1.55
2022-10-06T19:42:02.278Z,1.27
2022-10-06T19:44:48.040Z,1.10
2022-10-06T19:47:33.632Z,0.85
2022-10-06T19:50:19.700Z,1.43
2022-10-06T19:53:06.565Z,1.00
2022-10-06T19:56:01.512Z,1.30
2022-10-06T19:58:50.387Z,1.10
2022-10-06T20:01:36.147Z,1.10
2022-10-06T20:04:25.287Z,1.30
2022-10-06T20:07:12.559Z,1.23
2022-10-06T20:09:58.130Z,1.67
2022-10-06T20:12:44.957Z,1.40
2022-10-06T20:15:32.319Z,1.02
2022-10-06T20:18:17.570Z,1.53
2022-10-06T20:21:03.702Z,1.00
2022-10-06T20:23:49.841Z,1.05
2022-10-06T20:26:38.918Z,1.02
2022-10-06T20:29:26.404Z,0.85
2022-10-06T20:32:12.031Z,0.90
2022-10-06T20:34:58.113Z,1.58
2022-10-06T20:37:45.516Z,1.10
2022-10-06T20:40:42.689Z,1.17
2022-10-06T20:43:30.169Z,1.25
2022-10-06T20:46:15.966Z,1.50
2022-10-06T20:49:04.224Z,1.08
2022-10-06T20:51:51.906Z,1.23
2022-10-06T20:54:37.686Z,1.10
2022-10-06T20:57:23.437Z,1.20
2022-10-06T21:00:10.427Z,0.90
2022-10-06T21:02:56.886Z,0.80
2022-10-06T21:05:49.025Z,1.00
2022-10-06T21:08:34.661Z,1.23
2022-10-06T21:11:23.716Z,1.15
2022-10-06T21:14:11.639Z,0.80
2022-10-06T21:16:57.164Z,1.17
2022-10-06T21:19:44.433Z,1.00
2022-10-06T21:22:31.540Z,1.17
2022-10-06T21:25:17.295Z,1.08
2022-10-06T21:28:04.065Z,0.88
2022-10-06T21:30:50.465Z,1.08
2022-10-06T21:33:41.056Z,1.48
2022-10-06T21:36:28.221Z,1.20
2022-10-06T21:39:14.237Z,0.93
2022-10-06T21:42:02.671Z,1.27
2022-10-06T21:44:48.426Z,1.30
2022-10-06T21:47:34.871Z,0.82
2022-10-06T21:50:20.645Z,1.10
2022-10-06T21:53:06.381Z,1.33
2022-10-06T21:55:53.719Z,1.30
2022-10-06T21:58:39.212Z,1.23
2022-10-06T22:01:31.362Z,0.90
2022-10-06T22:04:17.522Z,1.23
2022-10-06T22:07:03.487Z,1.42
2022-10-06T22:09:48.902Z,1.08
2022-10-06T22:12:35.423Z,1.43
2022-10-06T22:15:22.108Z,0.97
2022-10-06T22:18:07.659Z,0.98
2022-10-06T22:20:53.375Z,0.88
2022-10-06T22:23:41.109Z,0.93
2022-10-06T22:26:30.081Z,1.58
2022-10-06T22:29:17.630Z,0.88
2022-10-06T22:32:03.502Z,1.25
2022-10-06T22:34:49.179Z,1.33
2022-10-06T22:37:35.114Z,1.20
2022-10-06T22:40:20.841Z,0.90
2022-10-06T22:43:06.430Z,1.20
2022-10-06T22:45:52.136Z,1.50
2022-10-06T22:48:38.586Z,1.45
2022-10-06T22:51:24.990Z,1.27
2022-10-06T22:54:16.999Z,1.20
2022-10-06T22:57:02.551Z,1.23
2022-10-06T22:59:48.565Z,1.10
2022-10-06T23:02:34.425Z,1.17
2022-10-06T23:05:20.365Z,1.27
2022-10-06T23:08:07.446Z,1.23
2022-10-06T23:10:53.778Z,1.73
2022-10-06T23:13:40.538Z,1.17
2022-10-06T23:16:26.040Z,1.27
2022-10-06T23:19:12.113Z,1.80
2022-10-06T23:21:57.715Z,1.13
2022-10-06T23:24:43.442Z,1.17
2022-10-06T23:27:29.525Z,1.52
2022-10-06T23:30:15.452Z,1.60
2022-10-06T23:33:00.980Z,1.90
2022-10-06T23:35:56.321Z,1.65
2022-10-06T23:38:45.436Z,1.55
2022-10-06T23:41:31.525Z,1.35
2022-10-06T23:44:17.134Z,1.33
2022-10-06T23:47:02.956Z,1.48
2022-10-06T23:49:48.522Z,1.33
2022-10-06T23:52:34.740Z,1.45
2022-10-06T23:55:20.883Z,1.42
2022-10-06T23:58:06.564Z,1.77
